Latest Coastal Weather Observations for Ballina

IDN60701

Issued at 12:15 am EST Monday 22 September 2014 (issued every 10 minutes, with the page automatically refreshed every 10 minutes)

About coastal observations | Map of coastal stations | Coastal observations for NSW | Marine services | Other Formats
Station Details ID: 058198 Name: BALLINA AIRPORT AWS Lat: -28.84 Lon: 153.56 Height: 1.3 m
Data from the previous 72 hours. | See also: Recent months at Ballina
Date/Time
EST
Temp

°C
Wind Pressure Rain
since 9am
mm
Weather Cloud Vis
km
Sea
Height
m
Swell
Dir
 
Speed
knots
Gust
knots
hPa Trend Height
m
Period
s
Dir
22/12:00am 17.0 SE 8 12 1028.0 - 2.6 - Mostly cloudy 10 - - - -
 
Date/Time
EST
Temp

°C
Wind Pressure Rain
since 9am
mm
Weather Cloud Vis
km
Sea
Height
m
Swell
Dir
 
Speed
knots
Gust
knots
hPa Trend Height
m
Period
s
Dir
21/11:30pm 16.5 SE 8 12 1028.3 - 2.6 - - 10 - - - -
21/11:00pm 16.7 SE 7 12 1028.4 - 2.6 - - 10 - - - -
21/10:30pm 17.1 SE 8 11 1028.5 - 2.6 - - 10 - - - -
21/10:00pm 17.5 SE 9 12 1028.5 - 2.6 - - 10 - - - -
21/09:30pm 17.7 SE 10 14 1028.5 - 2.6 - Partly cloudy 10 - - - -
21/09:00pm 17.8 SE 8 12 1028.5 - 2.6 - Cloudy 10 - - - -
21/08:30pm 18.0 SE 9 12 1028.5 - 2.6 - Partly cloudy 10 - - - -
21/08:00pm 18.1 SE 10 16 1028.4 - 2.6 - Partly cloudy 10 - - - -
21/07:30pm 18.1 SE 11 15 1028.0 - 2.6 - Partly cloudy 10 - - - -
21/07:00pm 18.1 SE 11 16 1027.3 - 2.6 - Partly cloudy 10 - - - -
21/06:30pm 18.0 SSE 11 15 1027.0 - 2.6 - Partly cloudy 10 - - - -
21/06:00pm 18.2 SSE 11 16 1026.8 - 2.6 - Cloudy 10 - - - -
21/05:30pm 17.2 SE 12 17 1026.6 - 2.6 - Partly cloudy 10 - - - -
21/05:00pm 16.5 SW 6 8 1026.4 - 2.6 - Partly cloudy 10 - - - -
21/04:30pm 16.4 SSW 7 10 1026.5 - 2.6 - Partly cloudy 10 - - - -
21/04:00pm 16.5 SSE 15 20 1026.4 - 2.6 - Partly cloudy 9 - - - -
21/03:30pm 17.4 S 15 21 1026.1 - 2.6 - Partly cloudy 10 - - - -
21/03:00pm 18.8 S 16 23 1025.8 - 2.6 - Mostly clear 10 - - - -
21/02:30pm 19.9 S 12 17 1025.5 - 2.6 - Partly cloudy 10 - - - -
21/02:00pm 18.9 S 12 16 1025.6 - 2.6 - Partly cloudy 10 - - - -
21/01:30pm 19.3 SSE 15 21 1026.0 - 2.6 - Partly cloudy 10 - - - -
21/01:00pm 19.8 S 15 20 1026.3 - 2.6 - Partly cloudy 10 - - - -
21/12:30pm 19.0 S 13 19 1026.5 - 2.6 - Partly cloudy 10 - - - -
21/12:08pm 16.0 E 5 7 1026.7 - 2.6 - Partly cloudy 10 - - - -
21/12:00pm 15.2 E 5 7 1026.8 - 2.6 Rain Cloudy 8 - - - -
21/11:43am 14.8 SSE 19 24 1027.2 - 0.4 - Partly cloudy 5 - - - -
21/11:37am 16.4 SE 20 24 1027.0 - 0.0 - Partly cloudy 10 - - - -
21/11:30am 19.7 S 16 20 1026.8 - 0.0 - Partly cloudy 10 - - - -
21/11:00am 18.6 S 14 20 1027.1 - 0.0 - Partly cloudy 10 - - - -
21/10:30am 19.7 S 15 20 1027.6 - 0.0 - Partly cloudy 10 - - - -
21/10:00am 19.5 SSW 11 18 1027.8 - 0.0 - Partly cloudy 10 - - - -
21/09:30am 20.0 SW 10 13 1027.8 - 0.0 - Partly cloudy 10 - - - -
21/09:00am 18.6 SW 10 15 1027.6 - 0.0 - - 10 - - - -
21/08:30am 18.0 SW 11 17 1027.5 - 0.0 - Partly cloudy 10 - - - -
21/08:00am 17.1 WSW 9 12 1027.4 - 0.0 - Partly cloudy 10 - - - -
21/07:30am 15.6 WSW 8 10 1027.1 - 0.0 - Partly cloudy 10 - - - -
21/07:00am 13.8 W 6 8 1027.0 - 0.0 - - 10 - - - -
21/06:30am 11.7 WNW 4 6 1026.6 - 0.0 - - 10 - - - -
21/06:00am 11.0 WNW 4 5 1026.2 - 0.0 - Mostly clear 10 - - - -
21/05:30am 11.6 WNW 3 4 1025.9 - 0.0 - Partly cloudy 10 - - - -
21/05:00am 11.5 W 3 4 1025.7 - 0.0 - Partly cloudy 10 - - - -
21/04:30am 11.5 W 5 5 1025.2 - 0.0 - Partly cloudy 10 - - - -
21/04:00am 12.1 CALM 0 0 1025.0 - 0.0 - Partly cloudy 10 - - - -
21/03:30am 12.0 WSW 6 7 1024.8 - 0.0 - - 10 - - - -
21/03:00am 12.8 SW 7 9 1024.7 - 0.0 - Mostly clear 10 - - - -
21/02:30am 11.3 W 6 7 1025.0 - 0.0 - - 10 - - - -
21/02:00am 11.0 W 6 7 1025.1 - 0.0 - Partly cloudy 10 - - - -
21/01:30am 13.2 SW 7 9 1025.4 - 0.0 - - 10 - - - -
21/01:00am 12.8 WSW 7 9 1025.4 - 0.0 - Partly cloudy 10 - - - -
21/12:30am 11.9 WSW 7 8 1025.6 - 0.0 - Partly cloudy 10 - - - -
21/12:00am 13.4 WSW 7 9 1025.7 - 0.0 - - 10 - - - -
 
Date/Time
EST
Temp

°C
Wind Pressure Rain
since 9am
mm
Weather Cloud Vis
km
Sea
Height
m
Swell
Dir
 
Speed
knots
Gust
knots
hPa Trend Height
m
Period
s
Dir
20/11:30pm 12.0 W 5 6 1025.7 - 0.0 - Partly cloudy 10 - - - -
20/11:00pm 12.0 W 5 6 1025.8 - 0.0 - Partly cloudy 10 - - - -
20/10:30pm 12.3 W 4 5 1025.7 - 0.0 - Partly cloudy 10 - - - -
20/10:00pm 12.6 W 4 5 1025.7 - 0.0 - Partly cloudy 10 - - - -
20/09:30pm 13.7 S 3 7 1025.5 - 0.0 - - 10 - - - -
20/09:00pm 16.0 SE 7 9 1025.2 - 0.0 - - 10 - - - -
20/08:30pm 16.4 SE 7 9 1024.9 - 0.0 - - 10 - - - -
20/08:00pm 16.5 SE 7 9 1024.5 - 0.0 - - 10 - - - -
20/07:30pm 17.4 SE 8 11 1024.2 - 0.0 - - 10 - - - -
20/07:00pm 17.1 SSE 8 10 1023.7 - 0.0 - - 10 - - - -
20/06:30pm 17.4 SE 9 13 1023.3 - 0.0 - Partly cloudy 10 - - - -
20/06:00pm 17.3 SSE 9 13 1022.8 - 0.0 - - 10 - - - -
20/05:30pm 17.5 SSE 7 10 1022.4 - 0.0 - - 10 - - - -
20/05:00pm 18.7 SSE 11 15 1021.8 - 0.0 - - 10 - - - -
20/04:30pm 19.3 SSE 11 15 1021.2 - 0.0 - - 10 - - - -
20/04:00pm 19.5 SSE 10 15 1021.1 - 0.0 - - 10 - - - -
20/03:30pm 20.2 SE 13 17 1020.8 - 0.0 - - 10 - - - -
20/03:00pm 20.3 SSE 12 16 1020.5 - 0.0 - - 10 - - - -
20/02:30pm 20.0 SSE 13 18 1020.7 - 0.0 - - 10 - - - -
20/02:00pm 20.1 SSE 13 18 1020.6 - 0.0 - - 10 - - - -
20/01:30pm 20.2 SSE 12 18 1020.9 - 0.0 - - 10 - - - -
20/01:00pm 20.4 SSE 12 15 1021.3 - 0.0 - - 10 - - - -
20/12:30pm 20.1 SSE 11 16 1021.5 - 0.0 - - 10 - - - -
20/12:00pm 20.1 SSE 9 14 1021.9 - 0.0 - - 10 - - - -
20/11:30am 20.2 SSE 9 12 1022.2 - 0.0 - - 10 - - - -
20/11:00am 19.8 SSE 9 14 1022.5 - 0.0 - Partly cloudy 10 - - - -
20/10:30am 19.6 SE 7 12 1022.7 - 0.0 - Partly cloudy 10 - - - -
20/10:00am 19.8 S 7 10 1022.8 - 0.0 - - 10 - - - -
20/09:30am 20.2 S 5 10 1023.0 - 0.0 - Partly cloudy 10 - - - -
20/09:00am 19.4 SSE 7 10 1023.1 - 0.4 - Mostly cloudy 10 - - - -
20/08:30am 18.6 S 6 8 1023.0 - 0.4 - Partly cloudy 10 - - - -
20/08:00am 17.9 SE 6 8 1022.8 - 0.4 - Cloudy 10 - - - -
20/07:30am 17.4 SE 4 5 1022.6 - 0.4 - Cloudy 10 - - - -
20/07:00am 17.0 SE 6 9 1022.1 - 0.4 - Cloudy 10 - - - -
20/06:30am 16.9 SSE 9 12 1021.7 - 0.4 - Partly cloudy 10 - - - -
20/06:00am 16.4 SE 10 15 1021.0 - 0.4 - Cloudy 10 - - - -
20/05:30am 16.3 ESE 12 16 1020.6 - 0.4 - Partly cloudy 10 - - - -
20/05:00am 16.3 SE 12 17 1020.2 - 0.4 - Partly cloudy 10 - - - -
20/04:30am 16.6 SE 10 17 1019.9 - 0.4 - Partly cloudy 10 - - - -
20/04:00am 16.4 SE 9 13 1019.8 - 0.4 - Partly cloudy 10 - - - -
20/03:30am 16.0 SSE 7 10 1019.8 - 0.4 - Cloudy 10 - - - -
20/03:00am 15.5 S 8 10 1019.7 - 0.4 - Mostly cloudy 10 - - - -
20/02:30am 15.5 SSE 10 13 1019.7 - 0.4 - - 10 - - - -
20/02:00am 15.4 S 10 15 1019.7 - 0.4 - - 10 - - - -
20/01:30am 14.5 WSW 7 9 1019.9 - 0.4 - Partly cloudy 10 - - - -
20/01:00am 14.2 SSW 7 11 1019.7 - 0.4 - - 10 - - - -
20/12:30am 12.5 W 4 5 1019.6 - 0.4 - - 10 - - - -
20/12:00am 13.8 CALM 0 0 1019.3 - 0.4 - Partly cloudy 10 - - - -
 
Date/Time
EST
Temp

°C
Wind Pressure Rain
since 9am
mm
Weather Cloud Vis
km
Sea
Height
m
Swell
Dir
 
Speed
knots
Gust
knots
hPa Trend Height
m
Period
s
Dir
19/11:30pm 14.7 NNW 3 4 1019.2 - 0.4 - - 10 - - - -
19/11:00pm 15.5 NNW 4 5 1019.3 - 0.4 - - 10 - - - -
19/10:30pm 15.8 NNW 5 6 1019.4 - 0.4 - Partly cloudy 10 - - - -
19/10:00pm 16.4 N 4 5 1019.6 - 0.4 - Partly cloudy 10 - - - -
19/09:30pm 15.7 N 4 6 1019.7 - 0.4 - Partly cloudy 10 - - - -
19/09:00pm 14.8 N 3 4 1019.8 - 0.4 - Mostly clear 10 - - - -
19/08:30pm 15.8 N 4 6 1019.7 - 0.4 - - 10 - - - -
19/08:00pm 15.6 N 4 5 1019.8 - 0.4 - - 10 - - - -
19/07:30pm 17.3 N 3 5 1019.4 - 0.4 - Partly cloudy 10 - - - -
19/07:00pm 17.7 N 5 7 1019.1 - 0.4 - Partly cloudy 10 - - - -
19/06:30pm 17.3 NE 5 8 1018.6 - 0.4 - - 10 - - - -
19/06:00pm 17.7 NE 5 7 1018.3 - 0.4 - Mostly clear 10 - - - -
19/05:30pm 18.9 ENE 8 10 1017.9 - 0.4 - - 10 - - - -
19/05:00pm 19.9 NE 10 13 1017.6 - 0.4 - - 10 - - - -
19/04:30pm 20.5 NE 10 15 1017.4 - 0.4 - - 10 - - - -
19/04:00pm 20.9 NE 13 16 1017.2 - 0.4 - - 10 - - - -
19/03:30pm 21.0 ENE 12 16 1017.2 - 0.4 - - 10 - - - -
19/03:00pm 21.1 E 11 14 1017.3 - 0.4 Recent precip. Cloudy 10 - - - -
19/02:30pm 21.1 E 11 16 1017.4 - 0.4 - - 10 - - - -
19/02:00pm 21.6 E 11 15 1018.0 - 0.0 - - 10 - - - -
19/01:30pm 20.8 E 10 13 1018.5 - 0.0 - - 10 - - - -
19/01:00pm 20.7 ESE 9 15 1019.1 - 0.0 - - 10 - - - -
19/12:30pm 20.5 SE 10 14 1019.4 - 0.0 - Partly cloudy 10 - - - -
19/12:00pm 20.8 SE 9 14 1019.8 - 0.0 - - 10 - - - -
19/11:30am 19.8 SSE 10 13 1020.2 - 0.0 - Partly cloudy 10 - - - -
19/11:00am 20.0 S 7 9 1020.6 - 0.0 - Cloudy 10 - - - -
19/10:30am 20.6 SSE 7 10 1020.9 - 0.0 - Cloudy 10 - - - -
19/10:00am 19.7 E 5 8 1021.3 - 0.0 - Partly cloudy 10 - - - -
19/09:30am 20.5 WSW 3 6 1021.7 - 0.0 - - 10 - - - -
19/09:00am 18.9 SSW 4 7 1022.0 - 0.0 - - 10 - - - -
19/08:30am 17.8 W 6 8 1022.1 - 0.0 - - 10 - - - -
19/08:00am 16.1 W 8 9 1022.0 - 0.0 - - 10 - - - -
19/07:30am 14.4 W 5 7 1021.9 - 0.0 - - 10 - - - -
19/07:00am 12.0 W 3 5 1021.5 - 0.0 - - 10 - - - -
19/06:30am 10.0 CALM 0 0 1021.3 - 0.0 - - 10 - - - -
19/06:00am 7.4 CALM 0 0 1020.8 - 0.0 - - 10 - - - -
19/05:30am 7.4 CALM 0 0 1020.6 - 0.0 - - 10 - - - -
19/05:00am 7.5 CALM 0 0 1020.5 - 0.0 - - 10 - - - -
19/04:30am 8.2 CALM 0 0 1020.2 - 0.0 - - 10 - - - -
19/04:00am 7.6 CALM 0 0 1019.9 - 0.0 - - 10 - - - -
19/03:30am 8.3 CALM 0 0 1019.5 - 0.0 - - 10 - - - -
19/03:00am 8.3 CALM 0 0 1019.7 - 0.0 - - 10 - - - -
19/02:44am 8.4 CALM 0 0 1019.7 - 0.0 - - 10 - - - -
19/02:30am 8.5 CALM 0 0 1019.8 - 0.0 - - 3 - - - -
19/02:08am 8.7 CALM 0 0 1019.9 - 0.0 - - 5 - - - -
19/02:00am 8.2 CALM 0 0 1019.9 - 0.0 - - 10 - - - -
19/01:30am 8.8 CALM 0 0 1020.3 - 0.0 - - 10 - - - -
19/01:00am 9.0 CALM 0 0 1020.4 - 0.0 - - 10 - - - -
19/12:30am 8.7 CALM 0 0 1020.5 - 0.0 - - 10 - - - -

Other Formats:

Comma delimited format used in spreadsheet applications
http://www.bom.gov.au/fwo/IDN60701/IDN60701.94596.axf

JavaScript Object Notation format (JSON) in row-major order
http://www.bom.gov.au/fwo/IDN60701/IDN60701.94596.json